Terminal Aerodrome Forecast
Issued by NWS Caribou, ME

Home | Current Version | Previous Version | Text Only | Print | Product List | Glossary On
Versions: 1 2 3 4 5 6 7 8 9 10 11 12 13 14 15 16 17 18 19 20 21
809
FTUS41 KCAR 251847 AAD
TAFCAR
TAF AMD
KCAR 251847Z 2519/2618 12007KT 2SM -SHRADZ BR OVC004 WS020/18035KT
     FM260000 15012KT 1SM -SHRADZ BR OVC003 WS020/17045KT
     FM260600 15011KT 3SM SHRA BR OVC006 WS020/17045KT
     FM261030 25009KT 1 1/2SM -SHRASN BR OVC012
     FM261300 26011G18KT 4SM -SHSN OVC024
     FM261500 26013G21KT P6SM VCSH BKN035=

USA.gov is the U.S. government's official web portal to all federal, state and local government web resources and services.